createdAt,value
2023-05-19T00:01:28.387Z,100578.93
2023-05-19T00:04:05.461Z,100583.00
2023-05-19T00:06:41.656Z,100581.51
2023-05-19T00:09:15.405Z,100583.98
2023-05-19T00:11:50.823Z,100580.84
2023-05-19T00:14:25.795Z,100581.44
2023-05-19T00:17:02.190Z,100581.20
2023-05-19T00:19:35.555Z,100580.15
2023-05-19T00:22:09.692Z,100583.20
2023-05-19T00:24:43.220Z,100588.33
2023-05-19T00:27:16.686Z,100580.88
2023-05-19T00:29:50.657Z,100589.53
2023-05-19T00:32:24.773Z,100588.49
2023-05-19T00:34:59.567Z,100587.45
2023-05-19T00:37:33.609Z,100593.85
2023-05-19T00:40:10.056Z,100606.00
2023-05-19T00:42:44.458Z,100607.04
2023-05-19T00:45:18.296Z,100595.28
2023-05-19T00:47:51.898Z,100606.83
2023-05-19T00:50:27.454Z,100611.14
2023-05-19T00:53:01.351Z,100617.31
2023-05-19T00:55:38.479Z,100604.15
2023-05-19T00:58:13.228Z,100595.28
2023-05-19T01:00:47.463Z,100591.80
2023-05-19T01:03:21.784Z,100592.59
2023-05-19T01:05:56.011Z,100589.33
2023-05-19T01:08:31.828Z,100590.13
2023-05-19T01:11:06.865Z,100602.52
2023-05-19T01:13:42.188Z,100591.80
2023-05-19T01:16:24.024Z,100584.55
2023-05-19T01:19:06.951Z,100590.75
2023-05-19T01:22:13.459Z,100594.23
2023-05-19T01:25:25.591Z,100593.19
2023-05-19T01:28:27.921Z,100597.50
2023-05-19T01:31:04.311Z,100598.09
2023-05-19T01:33:39.493Z,100596.25
2023-05-19T01:36:14.857Z,100602.41
2023-05-19T01:38:50.154Z,100601.36
2023-05-19T01:41:26.204Z,100598.69
2023-05-19T01:44:00.792Z,100593.56
2023-05-19T01:46:35.827Z,100594.37
2023-05-19T01:49:11.501Z,100595.66
2023-05-19T01:51:45.820Z,100588.88
2023-05-19T01:54:18.757Z,100583.75
2023-05-19T01:57:02.045Z,100585.81
2023-05-19T01:59:44.090Z,100591.59
2023-05-19T02:02:23.093Z,100592.88
2023-05-19T02:05:01.743Z,100592.50
2023-05-19T02:07:46.128Z,100595.64
2023-05-19T02:10:25.493Z,100594.45
2023-05-19T02:13:02.840Z,100603.98
2023-05-19T02:15:42.324Z,100595.59
2023-05-19T02:18:20.630Z,100592.53
2023-05-19T02:20:58.229Z,100597.55
2023-05-19T02:23:32.506Z,100601.47
2023-05-19T02:26:08.806Z,100612.64
2023-05-19T02:28:41.960Z,100602.37
2023-05-19T02:31:15.765Z,100608.17
2023-05-19T02:33:49.074Z,100611.30
2023-05-19T02:36:23.272Z,100617.10
2023-05-19T02:38:57.814Z,100621.86
2023-05-19T02:41:32.412Z,100621.51
2023-05-19T02:44:06.520Z,100619.48
2023-05-19T02:46:41.186Z,100616.66
2023-05-19T02:49:15.000Z,100632.36
2023-05-19T02:51:48.459Z,100624.98
2023-05-19T02:54:21.503Z,100637.41
2023-05-19T02:56:55.244Z,100639.09
2023-05-19T02:59:29.268Z,100645.92
2023-05-19T03:02:04.531Z,100640.41
2023-05-19T03:04:42.992Z,100645.84
2023-05-19T03:07:17.103Z,100644.63
2023-05-19T03:09:50.296Z,100647.95
2023-05-19T03:12:24.005Z,100652.70
2023-05-19T03:14:57.198Z,100645.34
2023-05-19T03:17:34.372Z,100658.52
2023-05-19T03:20:11.512Z,100653.81
2023-05-19T03:22:45.377Z,100660.43
2023-05-19T03:25:19.080Z,100662.70
2023-05-19T03:27:53.211Z,100663.14
2023-05-19T03:30:27.418Z,100660.89
2023-05-19T03:33:13.067Z,100664.00
2023-05-19T03:35:46.372Z,100670.61
2023-05-19T03:38:20.160Z,100670.02
2023-05-19T03:40:58.250Z,100665.09
2023-05-19T03:43:32.300Z,100667.97
2023-05-19T03:46:09.943Z,100673.55
2023-05-19T03:49:15.297Z,100676.65
2023-05-19T03:52:10.045Z,100678.48
2023-05-19T03:54:59.282Z,100672.53
2023-05-19T03:57:33.931Z,100674.41
2023-05-19T04:00:11.587Z,100685.91
2023-05-19T04:02:48.685Z,100679.52
2023-05-19T04:05:23.657Z,100678.29
2023-05-19T04:07:57.558Z,100687.52
2023-05-19T04:10:32.488Z,100683.58
2023-05-19T04:13:05.993Z,100684.59
2023-05-19T04:15:39.598Z,100683.73
2023-05-19T04:18:13.840Z,100691.69
2023-05-19T04:20:47.584Z,100688.75
2023-05-19T04:23:21.703Z,100685.84
2023-05-19T04:25:57.307Z,100697.72
2023-05-19T04:28:31.605Z,100698.05
2023-05-19T04:31:11.195Z,100698.37
2023-05-19T04:33:46.317Z,100700.09
2023-05-19T04:36:21.968Z,100693.21
2023-05-19T04:39:02.483Z,100692.24
2023-05-19T04:41:36.340Z,100694.78
2023-05-19T04:44:11.286Z,100696.52
2023-05-19T04:46:45.524Z,100702.38
2023-05-19T04:49:20.944Z,100704.16
2023-05-19T04:51:56.838Z,100707.64
2023-05-19T04:54:32.837Z,100706.29
2023-05-19T04:57:07.958Z,100709.70
2023-05-19T04:59:44.937Z,100713.26
2023-05-19T05:02:18.834Z,100713.53
2023-05-19T05:04:54.922Z,100719.17
2023-05-19T05:07:31.578Z,100721.66
2023-05-19T05:10:06.257Z,100727.30
2023-05-19T05:12:42.978Z,100730.70
2023-05-19T05:15:19.801Z,100738.17
2023-05-19T05:17:57.070Z,100744.38
2023-05-19T05:20:34.694Z,100740.71
2023-05-19T05:23:14.837Z,100740.24
2023-05-19T05:25:51.984Z,100728.00
2023-05-19T05:28:25.814Z,100732.88
2023-05-19T05:30:59.696Z,100726.78
2023-05-19T05:33:33.559Z,100730.62
2023-05-19T05:36:08.878Z,100728.02
2023-05-19T05:38:42.522Z,100732.06
2023-05-19T05:41:17.672Z,100730.98
2023-05-19T05:43:53.148Z,100741.20
2023-05-19T05:46:27.423Z,100743.62
2023-05-19T05:49:03.183Z,100733.60
2023-05-19T05:51:38.546Z,100743.80
2023-05-19T05:54:17.436Z,100745.14
2023-05-19T05:56:53.562Z,100748.56
2023-05-19T05:59:27.735Z,100753.62
2023-05-19T06:02:01.835Z,100750.92
2023-05-19T06:04:36.602Z,100744.91
2023-05-19T06:07:11.197Z,100759.93
2023-05-19T06:09:44.422Z,100759.80
2023-05-19T06:12:18.541Z,100749.23
2023-05-19T06:14:54.053Z,100757.20
2023-05-19T06:17:44.708Z,100761.66
2023-05-19T06:20:20.520Z,100761.26
2023-05-19T06:22:54.638Z,100771.66
2023-05-19T06:25:28.525Z,100767.98
2023-05-19T06:28:02.675Z,100769.80
2023-05-19T06:30:37.186Z,100772.07
2023-05-19T06:33:22.738Z,100768.98
2023-05-19T06:35:56.709Z,100772.87
2023-05-19T06:38:31.708Z,100776.20
2023-05-19T06:41:06.102Z,100773.31
2023-05-19T06:43:40.346Z,100776.60
2023-05-19T06:46:18.106Z,100782.37
2023-05-19T06:48:51.808Z,100776.77
2023-05-19T06:51:27.170Z,100767.62
2023-05-19T06:54:03.180Z,100784.45
2023-05-19T06:56:38.337Z,100781.50
2023-05-19T06:59:13.240Z,100777.75
2023-05-19T07:01:48.227Z,100784.02
2023-05-19T07:04:23.848Z,100784.06
2023-05-19T07:06:57.713Z,100782.99
2023-05-19T07:09:31.173Z,100787.59
2023-05-19T07:12:05.468Z,100785.98
2023-05-19T07:14:40.220Z,100784.66
2023-05-19T07:17:14.896Z,100781.95
2023-05-19T07:19:50.827Z,100775.98
2023-05-19T07:22:25.360Z,100782.49
2023-05-19T07:24:58.922Z,100784.91
2023-05-19T07:27:32.753Z,100777.08
2023-05-19T07:30:10.111Z,100773.81
2023-05-19T07:32:43.683Z,100771.08
2023-05-19T07:35:17.957Z,100782.44
2023-05-19T07:37:52.731Z,100781.03
2023-05-19T07:40:26.207Z,100785.36
2023-05-19T07:42:59.570Z,100783.97
2023-05-19T07:45:33.526Z,100783.69
2023-05-19T07:48:08.048Z,100777.38
2023-05-19T07:50:41.566Z,100780.06
2023-05-19T07:53:15.911Z,100785.98
2023-05-19T07:55:50.354Z,100779.16
2023-05-19T07:58:24.745Z,100779.13
2023-05-19T08:01:00.709Z,100778.00
2023-05-19T08:03:34.858Z,100777.92
2023-05-19T08:06:09.617Z,100785.47
2023-05-19T08:08:43.820Z,100777.51
2023-05-19T08:11:17.818Z,100785.58
2023-05-19T08:13:51.986Z,100787.68
2023-05-19T08:16:25.836Z,100781.36
2023-05-19T08:19:02.716Z,100781.48
2023-05-19T08:21:37.353Z,100783.58
2023-05-19T08:24:11.656Z,100783.53
2023-05-19T08:26:47.228Z,100789.20
2023-05-19T08:29:21.225Z,100787.73
2023-05-19T08:31:55.324Z,100787.62
2023-05-19T08:34:29.249Z,100790.53
2023-05-19T08:37:03.629Z,100795.61
2023-05-19T08:39:36.897Z,100789.00
2023-05-19T08:42:11.676Z,100796.46
2023-05-19T08:44:45.980Z,100796.13
2023-05-19T08:47:21.162Z,100794.98
2023-05-19T08:50:03.587Z,100806.39
2023-05-19T08:52:52.540Z,100801.67
2023-05-19T08:55:34.715Z,100796.08
2023-05-19T08:58:09.700Z,100791.08
2023-05-19T09:00:44.886Z,100792.11
2023-05-19T09:03:23.935Z,100801.34
2023-05-19T09:05:58.384Z,100789.34
2023-05-19T09:08:32.556Z,100793.37
2023-05-19T09:11:06.579Z,100791.67
2023-05-19T09:13:40.792Z,100796.53
2023-05-19T09:16:14.308Z,100795.15
2023-05-19T09:19:01.185Z,100797.56
2023-05-19T09:21:36.667Z,100788.36
2023-05-19T09:24:12.671Z,100790.80
2023-05-19T09:26:46.250Z,100777.09
2023-05-19T09:29:20.440Z,100784.88
2023-05-19T09:32:01.059Z,100777.98
2023-05-19T09:34:35.665Z,100779.52
2023-05-19T09:37:09.888Z,100775.59
2023-05-19T09:39:49.012Z,100777.92
2023-05-19T09:42:29.976Z,100780.47
2023-05-19T09:45:08.733Z,100769.70
2023-05-19T09:47:44.291Z,100777.98
2023-05-19T09:50:18.427Z,100778.71
2023-05-19T09:52:53.617Z,100772.05
2023-05-19T09:55:30.578Z,100780.07
2023-05-19T09:58:06.390Z,100780.66
2023-05-19T10:00:41.731Z,100777.22
2023-05-19T10:03:17.859Z,100772.48
2023-05-19T10:05:53.024Z,100772.88
2023-05-19T10:08:27.868Z,100771.66
2023-05-19T10:11:01.708Z,100776.52
2023-05-19T10:13:39.010Z,100769.33
2023-05-19T10:16:13.673Z,100766.98
2023-05-19T10:18:47.593Z,100762.95
2023-05-19T10:21:21.743Z,100760.27
2023-05-19T10:23:55.937Z,100758.75
2023-05-19T10:26:30.124Z,100757.80
2023-05-19T10:29:04.422Z,100764.09
2023-05-19T10:31:40.456Z,100763.59
2023-05-19T10:34:37.898Z,100760.98
2023-05-19T10:37:22.345Z,100761.59
2023-05-19T10:39:56.520Z,100761.27
2023-05-19T10:42:38.444Z,100765.33
2023-05-19T10:45:19.334Z,100764.71
2023-05-19T10:47:53.763Z,100754.45
2023-05-19T10:50:30.491Z,100756.45
2023-05-19T10:53:06.063Z,100753.80
2023-05-19T10:55:56.436Z,100760.13
2023-05-19T10:58:51.032Z,100759.68
2023-05-19T11:01:31.125Z,100762.81
2023-05-19T11:04:12.560Z,100754.18
2023-05-19T11:06:54.176Z,100750.69
2023-05-19T11:09:38.209Z,100744.75
2023-05-19T11:12:14.598Z,100750.91
2023-05-19T11:14:48.605Z,100748.34
2023-05-19T11:17:24.109Z,100742.27
2023-05-19T11:20:00.301Z,100739.70
2023-05-19T11:22:37.281Z,100746.16
2023-05-19T11:25:10.906Z,100732.17
2023-05-19T11:27:47.933Z,100741.50
2023-05-19T11:30:22.071Z,100732.33
2023-05-19T11:32:57.954Z,100732.68
2023-05-19T11:35:36.263Z,100733.05
2023-05-19T11:38:10.259Z,100725.82
2023-05-19T11:40:45.452Z,100721.33
2023-05-19T11:43:19.456Z,100724.73
2023-05-19T11:45:54.798Z,100719.41
2023-05-19T11:48:28.280Z,100713.48
2023-05-19T11:51:03.422Z,100705.13
2023-05-19T11:53:38.890Z,100709.14
2023-05-19T11:56:13.290Z,100702.53
2023-05-19T11:58:46.978Z,100711.23
2023-05-19T12:01:20.598Z,100708.50
2023-05-19T12:03:54.736Z,100708.19
2023-05-19T12:06:29.223Z,100704.81
2023-05-19T12:09:03.287Z,100711.56
2023-05-19T12:11:39.492Z,100689.66
2023-05-19T12:14:14.670Z,100694.80
2023-05-19T12:16:49.115Z,100694.31
2023-05-19T12:19:26.363Z,100692.06
2023-05-19T12:22:01.666Z,100689.17
2023-05-19T12:24:37.568Z,100683.54
2023-05-19T12:27:14.283Z,100680.31
2023-05-19T12:29:53.585Z,100684.48
2023-05-19T12:32:29.296Z,100675.14
2023-05-19T12:35:03.553Z,100690.63
2023-05-19T12:37:38.362Z,100684.81
2023-05-19T12:40:16.924Z,100679.03
2023-05-19T12:42:52.335Z,100670.97
2023-05-19T12:45:28.706Z,100675.64
2023-05-19T12:48:07.344Z,100675.69
2023-05-19T12:50:41.553Z,100676.48
2023-05-19T12:53:16.391Z,100679.55
2023-05-19T12:55:49.787Z,100674.86
2023-05-19T12:58:24.625Z,100661.00
2023-05-19T13:01:01.773Z,100667.78
2023-05-19T13:03:40.961Z,100667.62
2023-05-19T13:06:14.920Z,100672.94
2023-05-19T13:08:50.238Z,100663.89
2023-05-19T13:11:24.527Z,100671.47
2023-05-19T13:13:58.395Z,100667.11
2023-05-19T13:16:31.703Z,100666.16
2023-05-19T13:19:06.353Z,100655.84
2023-05-19T13:21:40.623Z,100652.62
2023-05-19T13:24:14.731Z,100662.59
2023-05-19T13:26:49.338Z,100659.06
2023-05-19T13:29:22.610Z,100644.23
2023-05-19T13:31:57.346Z,100653.10
2023-05-19T13:34:32.130Z,100646.63
2023-05-19T13:37:07.670Z,100641.63
2023-05-19T13:39:42.709Z,100650.19
2023-05-19T13:42:17.758Z,100650.50
2023-05-19T13:44:51.728Z,100655.02
2023-05-19T13:47:27.056Z,100655.64
2023-05-19T13:50:01.286Z,100652.25
2023-05-19T13:52:35.614Z,100657.42
2023-05-19T13:55:10.200Z,100655.95
2023-05-19T13:57:44.357Z,100663.70
2023-05-19T14:00:21.523Z,100668.39
2023-05-19T14:02:55.538Z,100672.57
2023-05-19T14:05:31.383Z,100672.73
2023-05-19T14:08:05.686Z,100674.52
2023-05-19T14:10:39.022Z,100688.88
2023-05-19T14:13:31.036Z,100747.56
2023-05-19T14:16:08.210Z,100777.98
2023-05-19T14:18:42.325Z,100792.16
2023-05-19T14:21:16.647Z,100795.25
2023-05-19T14:23:50.585Z,100820.26
2023-05-19T14:26:24.387Z,100816.55
2023-05-19T14:28:58.662Z,100813.73
2023-05-19T14:31:32.781Z,100804.47
2023-05-19T14:34:06.890Z,100813.09
2023-05-19T14:36:41.327Z,100811.86
2023-05-19T14:39:15.266Z,100816.07
2023-05-19T14:41:51.228Z,100808.59
2023-05-19T14:44:24.960Z,100805.34
2023-05-19T14:46:58.785Z,100806.34
2023-05-19T14:49:32.944Z,100815.20
2023-05-19T14:52:07.928Z,100817.72
2023-05-19T14:54:41.636Z,100809.09
2023-05-19T14:57:16.058Z,100797.18
2023-05-19T14:59:50.384Z,100797.01
2023-05-19T15:02:24.702Z,100800.34
2023-05-19T15:04:58.776Z,100798.77
2023-05-19T15:07:32.982Z,100787.64
2023-05-19T15:10:06.592Z,100790.70
2023-05-19T15:12:40.687Z,100786.67
2023-05-19T15:15:17.402Z,100788.91
2023-05-19T15:17:51.084Z,100796.57
2023-05-19T15:20:25.639Z,100784.41
2023-05-19T15:23:01.123Z,100782.80
2023-05-19T15:25:34.459Z,100781.48
2023-05-19T15:28:08.497Z,100776.37
2023-05-19T15:30:43.751Z,100776.67
2023-05-19T15:33:17.593Z,100781.88
2023-05-19T15:35:52.457Z,100771.30
2023-05-19T15:38:27.832Z,100778.95
2023-05-19T15:41:07.129Z,100781.16
2023-05-19T15:43:41.756Z,100804.53
2023-05-19T15:46:16.426Z,100822.77
2023-05-19T15:48:49.968Z,100838.25
2023-05-19T15:51:24.502Z,100852.12
2023-05-19T15:53:57.859Z,100839.91
2023-05-19T15:56:30.980Z,100845.91
2023-05-19T15:59:05.070Z,100844.56
2023-05-19T16:01:39.613Z,100851.91
2023-05-19T16:04:13.389Z,100857.34
2023-05-19T16:06:47.662Z,100848.13
2023-05-19T16:09:21.272Z,100849.44
2023-05-19T16:11:55.441Z,100851.59
2023-05-19T16:14:31.391Z,100850.80
2023-05-19T16:17:04.933Z,100855.12
2023-05-19T16:19:39.189Z,100855.11
2023-05-19T16:22:12.744Z,100854.02
2023-05-19T16:24:46.210Z,100850.47
2023-05-19T16:27:20.319Z,100855.88
2023-05-19T16:29:54.127Z,100850.19
2023-05-19T16:32:28.263Z,100850.97
2023-05-19T16:35:02.217Z,100850.95
2023-05-19T16:37:36.290Z,100842.81
2023-05-19T16:40:11.052Z,100839.25
2023-05-19T16:42:45.198Z,100838.70
2023-05-19T16:45:19.211Z,100827.02
2023-05-19T16:47:53.078Z,100827.84
2023-05-19T16:50:27.016Z,100821.05
2023-05-19T16:53:01.409Z,100828.62
2023-05-19T16:55:35.046Z,100829.14
2023-05-19T16:58:10.909Z,100827.25
2023-05-19T17:00:44.845Z,100822.06
2023-05-19T17:03:18.728Z,100826.09
2023-05-19T17:05:52.711Z,100821.73
2023-05-19T17:08:27.054Z,100816.30
2023-05-19T17:11:00.942Z,100815.45
2023-05-19T17:13:36.592Z,100819.50
2023-05-19T17:16:11.380Z,100819.47
2023-05-19T17:18:45.053Z,100815.14
2023-05-19T17:21:19.112Z,100812.96
2023-05-19T17:23:53.055Z,100812.93
2023-05-19T17:26:26.668Z,100815.88
2023-05-19T17:29:00.452Z,100808.53
2023-05-19T17:31:34.293Z,100810.69
2023-05-19T17:34:08.515Z,100815.54
2023-05-19T17:36:42.194Z,100815.78
2023-05-19T17:39:15.865Z,100811.45
2023-05-19T17:41:49.772Z,100813.60
2023-05-19T17:44:23.803Z,100811.17
2023-05-19T17:46:58.252Z,100814.13
2023-05-19T17:49:32.555Z,100824.38
2023-05-19T17:52:09.007Z,100826.80
2023-05-19T17:54:44.252Z,100829.20
2023-05-19T17:57:19.386Z,100829.98
2023-05-19T17:59:55.244Z,100833.45
2023-05-19T18:02:31.779Z,100836.67
2023-05-19T18:05:08.697Z,100838.02
2023-05-19T18:07:43.664Z,100842.86
2023-05-19T18:10:18.637Z,100839.02
2023-05-19T18:12:51.911Z,100851.97
2023-05-19T18:15:27.688Z,100847.08
2023-05-19T18:18:01.187Z,100856.52
2023-05-19T18:20:35.866Z,100860.30
2023-05-19T18:23:11.209Z,100865.39
2023-05-19T18:25:49.964Z,100871.30
2023-05-19T18:28:24.497Z,100870.73
2023-05-19T18:31:05.128Z,100884.52
2023-05-19T18:33:39.037Z,100890.16
2023-05-19T18:36:13.718Z,100893.13
2023-05-19T18:38:49.017Z,100907.44
2023-05-19T18:41:23.226Z,100917.69
2023-05-19T18:43:57.863Z,100924.16
2023-05-19T18:46:31.718Z,100910.09
2023-05-19T18:49:05.800Z,100919.27
2023-05-19T18:51:39.679Z,100922.23
2023-05-19T18:54:13.888Z,100928.14
2023-05-19T18:56:48.383Z,100921.34
2023-05-19T18:59:24.898Z,100921.85
2023-05-19T19:01:58.814Z,100910.72
2023-05-19T19:04:32.734Z,100918.50
2023-05-19T19:07:06.801Z,100919.00
2023-05-19T19:09:43.992Z,100904.87
2023-05-19T19:12:19.081Z,100899.98
2023-05-19T19:14:53.821Z,100898.84
2023-05-19T19:17:29.978Z,100924.48
2023-05-19T19:20:05.354Z,100913.91
2023-05-19T19:22:39.674Z,100927.91
2023-05-19T19:25:13.770Z,100926.78
2023-05-19T19:27:47.750Z,100924.84
2023-05-19T19:30:22.511Z,100919.11
2023-05-19T19:32:57.306Z,100912.02
2023-05-19T19:35:31.623Z,100917.11
2023-05-19T19:38:05.727Z,100920.30
2023-05-19T19:40:39.243Z,100916.47
2023-05-19T19:43:12.947Z,100921.80
2023-05-19T19:45:47.708Z,100919.59
2023-05-19T19:48:21.813Z,100919.26
2023-05-19T19:50:58.937Z,100914.62
2023-05-19T19:53:33.206Z,100914.62
2023-05-19T19:56:07.405Z,100909.15
2023-05-19T19:58:41.134Z,100906.95
2023-05-19T20:01:16.512Z,100905.55
2023-05-19T20:03:50.028Z,100908.47
2023-05-19T20:06:24.861Z,100907.56
2023-05-19T20:09:00.264Z,100902.66
2023-05-19T20:11:34.926Z,100895.33
2023-05-19T20:14:08.870Z,100892.29
2023-05-19T20:16:43.388Z,100887.65
2023-05-19T20:19:17.714Z,100877.36
2023-05-19T20:21:51.854Z,100882.17
2023-05-19T20:24:25.723Z,100880.46
2023-05-19T20:26:59.741Z,100880.61
2023-05-19T20:29:33.546Z,100874.33
2023-05-19T20:32:07.433Z,100879.38
2023-05-19T20:34:41.492Z,100874.48
2023-05-19T20:37:14.805Z,100867.94
2023-05-19T20:39:49.376Z,100865.73
2023-05-19T20:42:24.021Z,100876.77
2023-05-19T20:44:59.381Z,100868.91
2023-05-19T20:47:32.536Z,100868.11
2023-05-19T20:50:06.718Z,100869.98
2023-05-19T20:52:40.865Z,100862.72
2023-05-19T20:55:15.131Z,100865.42
2023-05-19T20:57:48.797Z,100872.67
2023-05-19T21:00:23.864Z,100869.41
2023-05-19T21:02:58.058Z,100856.19
2023-05-19T21:05:31.708Z,100865.56
2023-05-19T21:08:05.579Z,100859.02
2023-05-19T21:10:38.909Z,100868.16
2023-05-19T21:13:13.344Z,100870.06
2023-05-19T21:15:47.308Z,100876.50
2023-05-19T21:18:21.376Z,100876.98
2023-05-19T21:20:55.212Z,100882.61
2023-05-19T21:23:29.471Z,100876.32
2023-05-19T21:26:04.472Z,100877.61
2023-05-19T21:28:37.682Z,100879.95
2023-05-19T21:31:11.233Z,100879.59
2023-05-19T21:33:45.631Z,100875.75
2023-05-19T21:36:19.429Z,100878.34
2023-05-19T21:38:53.376Z,100887.48
2023-05-19T21:41:26.485Z,100889.59
2023-05-19T21:44:02.110Z,100883.41
2023-05-19T21:46:35.902Z,100885.75
2023-05-19T21:49:09.679Z,100885.17
2023-05-19T21:51:44.013Z,100880.27
2023-05-19T21:54:17.924Z,100884.49
2023-05-19T21:56:51.813Z,100890.61
2023-05-19T21:59:26.648Z,100887.56
2023-05-19T22:02:00.992Z,100891.78
2023-05-19T22:04:34.969Z,100893.54
2023-05-19T22:07:08.816Z,100901.75
2023-05-19T22:09:42.633Z,100900.02
2023-05-19T22:12:16.803Z,100894.74
2023-05-19T22:14:51.061Z,100889.50
2023-05-19T22:17:24.929Z,100897.68
2023-05-19T22:19:58.627Z,100900.51
2023-05-19T22:22:32.836Z,100898.14
2023-05-19T22:25:09.020Z,100887.48
2023-05-19T22:27:42.547Z,100893.80
2023-05-19T22:30:16.721Z,100881.28
2023-05-19T22:32:51.129Z,100885.16
2023-05-19T22:35:25.140Z,100879.29
2023-05-19T22:37:58.736Z,100879.16
2023-05-19T22:40:32.856Z,100883.83
2023-05-19T22:43:06.958Z,100892.01
2023-05-19T22:45:40.981Z,100883.23
2023-05-19T22:48:16.461Z,100886.84
2023-05-19T22:50:50.417Z,100878.06
2023-05-19T22:53:24.435Z,100877.09
2023-05-19T22:55:57.823Z,100873.94
2023-05-19T22:58:31.834Z,100876.70
2023-05-19T23:01:05.871Z,100867.88
2023-05-19T23:03:39.913Z,100867.98
2023-05-19T23:06:13.477Z,100871.34
2023-05-19T23:08:48.369Z,100869.56
2023-05-19T23:11:22.306Z,100857.29
2023-05-19T23:13:55.766Z,100861.09
2023-05-19T23:16:29.662Z,100856.63
2023-05-19T23:19:03.627Z,100852.99
2023-05-19T23:21:37.724Z,100853.06
2023-05-19T23:24:11.719Z,100851.52
2023-05-19T23:26:46.376Z,100854.85
2023-05-19T23:29:19.623Z,100854.70
2023-05-19T23:31:53.649Z,100849.43
2023-05-19T23:34:27.756Z,100844.72
2023-05-19T23:37:01.661Z,100844.80
2023-05-19T23:39:35.665Z,100838.45
2023-05-19T23:42:10.612Z,100849.27
2023-05-19T23:44:44.271Z,100843.74
2023-05-19T23:47:18.634Z,100846.20
2023-05-19T23:49:52.900Z,100850.61
2023-05-19T23:52:26.647Z,100846.93
2023-05-19T23:55:00.543Z,100844.92
2023-05-19T23:57:34.780Z,100840.21
